Airfield :
LOGIN :

Register | Disclaimer

   EN    FR    IT 

 










Legend :    VFR   Marginal VFR   IFR   Intensive IFR   Very Intensive IFR
Visi :
Ceiling :
>= 8 km
>= 3000ft
5 to 8 km
1000 to 3000 ft
1500m to 5 km
500 to 1000 ft
800 to 1500m
200 to 500 ft
< 800m
< 200 ft
Symbols :   Thunderstorms  Fog  Heavy snow  Heavy precipitations  Wind > 20 kt
SIGMETs :     Misc.  Thunderstorms  Icing  Turbulence  Mountain Waves  Volcanic Ashes







- Airport Elevation : 989 ft
- IATA code : TRN


LIMF - Torino Caselle

CURRENT METAR :
  • 221220Z 03005KT 350V060 9999 BKN100 18/03 Q1012

EXPIRED METARs :
  • 221150Z 36005KT 330V040 9999 BKN100 18/03 Q1012
  • 221120Z 08005KT 010V110 9999 BKN100 17/02 Q1013
  • 221050Z 05004KT 340V120 9999 BKN100 17/03 Q1013
  • 221020Z 07005KT 030V110 9999 BKN100 17/03 Q1014
  • 220950Z 04006KT 9999 BKN100 17/03 Q1014

TAF TAF LIMF
Valid from the 22 at 12:00 until the 23 at 12:00 UTC


221100Z 2212/2312 07008KT 9999 BKN060
BECMG 2217/2219 4000 RA BKN012 BKN050
No reported NOTAMs for that airfield.



MET'MAP, your aeronautical weather chart ! - Copyright ORBIFLY December 2007 - Disclaimer

ORBIFLY MET'MAP TEAM :

Programming & Development : Alexandra Zaïnal
Concept & Development : Baudouin d'Aumeries
Co-Development & Prog : Marc-Olivier Méhu
Technical & hardware support : Manuel Goepfert

Contact : metmap@orbifly.com




SOURCES & CREDITS :

   NOAA